Time;durP1;ratioP1;P1;durP2;ratioP2;P2;SDS_P1;SDS_P2;PMS_P1;PMS_P2;Temp;Humidity;BMP_temperature;BMP_pressure;BME280_temperature;BME280_humidity;BME280_pressure;Samples;Min_cycle;Max_cycle;Signal;HPM_P1;HPM_P2
2023/02/14 00:00:26;;;;;;;42.05;20.33;;;;;;;;;;5008456;28;20058;-76
2023/02/14 00:02:55;;;;;;;39.63;18.95;;;;;;;;;;4992490;28;20455;-76
2023/02/14 00:05:22;;;;;;;39.20;20.00;;;;;;;;;;5008259;28;20070;-75
2023/02/14 00:07:48;;;;;;;43.10;20.52;;;;;;;;;;5008343;28;20108;-76
2023/02/14 00:10:16;;;;;;;43.80;21.48;;;;;;;;;;5008023;28;20060;-75
2023/02/14 00:12:42;;;;;;;38.05;18.85;;;;;;;;;;4992604;28;20058;-76
2023/02/14 00:15:22;;;;;;;39.53;19.10;;;;;;;;;;5007944;28;20054;-75
2023/02/14 00:17:53;;;;;;;36.47;19.20;;;;;;;;;;5008208;28;20066;-75
2023/02/14 00:20:21;;;;;;;41.50;19.58;;;;;;;;;;5008236;28;20097;-75
2023/02/14 00:22:48;;;;;;;39.35;20.05;;;;;;;;;;4991839;28;20490;-75
2023/02/14 00:25:15;;;;;;;41.47;20.73;;;;;;;;;;5008175;28;20046;-75
2023/02/14 00:27:41;;;;;;;37.60;19.77;;;;;;;;;;5007840;28;20057;-75
2023/02/14 00:30:09;;;;;;;42.03;20.83;;;;;;;;;;5008120;28;20064;-75
2023/02/14 00:32:38;;;;;;;40.53;20.70;;;;;;;;;;4991737;28;20062;-76
2023/02/14 00:35:06;;;;;;;41.55;21.65;;;;;;;;;;4993004;28;20132;-75
2023/02/14 00:37:33;;;;;;;41.20;21.00;;;;;;;;;;4995573;28;20065;-75
2023/02/14 00:39:59;;;;;;;42.88;20.27;;;;;;;;;;5025283;28;20053;-75
2023/02/14 00:42:26;;;;;;;43.15;21.63;;;;;;;;;;5031067;28;20061;-75
2023/02/14 00:44:53;;;;;;;45.47;22.58;;;;;;;;;;5031274;28;20418;-75
2023/02/14 00:47:19;;;;;;;41.42;20.38;;;;;;;;;;5031319;28;20352;-75
2023/02/14 00:49:46;;;;;;;39.53;20.08;;;;;;;;;;5014669;28;20056;-75
2023/02/14 00:52:13;;;;;;;39.40;20.80;;;;;;;;;;5032921;28;20049;-75
2023/02/14 00:54:39;;;;;;;42.08;20.90;;;;;;;;;;5014776;28;20053;-75
2023/02/14 00:57:06;;;;;;;41.63;20.63;;;;;;;;;;5031190;28;20057;-75
2023/02/14 00:59:33;;;;;;;40.80;20.70;;;;;;;;;;5031323;28;20064;-75
2023/02/14 01:01:59;;;;;;;39.90;22.38;;;;;;;;;;5031272;28;20057;-75
2023/02/14 01:04:26;;;;;;;40.63;20.85;;;;;;;;;;5030644;28;20056;-75
2023/02/14 01:06:53;;;;;;;41.08;21.90;;;;;;;;;;5031131;28;20060;-75
2023/02/14 01:09:20;;;;;;;43.63;22.02;;;;;;;;;;5031064;28;20050;-74
2023/02/14 01:11:47;;;;;;;44.00;21.27;;;;;;;;;;5031277;28;20420;-75
2023/02/14 01:14:14;;;;;;;39.60;21.08;;;;;;;;;;5030758;28;20128;-75
2023/02/14 01:16:41;;;;;;;42.38;21.92;;;;;;;;;;5031075;28;20065;-75
2023/02/14 01:19:08;;;;;;;44.13;21.90;;;;;;;;;;5030682;28;20111;-77
2023/02/14 01:21:35;;;;;;;48.13;23.17;;;;;;;;;;5030739;28;20057;-75
2023/02/14 01:24:05;;;;;;;49.72;24.08;;;;;;;;;;5030318;28;20053;-75
2023/02/14 01:26:33;;;;;;;49.30;23.58;;;;;;;;;;4998463;28;20060;-75
2023/02/14 01:29:00;;;;;;;46.13;23.42;;;;;;;;;;5014096;28;20053;-75
2023/02/14 01:31:28;;;;;;;44.80;22.13;;;;;;;;;;4997679;28;20156;-75
2023/02/14 01:33:55;;;;;;;45.83;22.98;;;;;;;;;;5014221;28;20425;-75
2023/02/14 01:36:34;;;;;;;45.78;21.52;;;;;;;;;;5014077;28;20464;-76
2023/02/14 01:39:04;;;;;;;35.90;20.35;;;;;;;;;;5014122;28;20056;-76
2023/02/14 01:41:32;;;;;;;41.38;20.88;;;;;;;;;;5013927;28;20057;-76
2023/02/14 01:44:06;;;;;;;42.70;21.92;;;;;;;;;;5029951;28;20068;-75
2023/02/14 01:46:35;;;;;;;45.92;21.80;;;;;;;;;;5029637;28;20057;-75
2023/02/14 01:49:10;;;;;;;41.08;21.33;;;;;;;;;;5003421;28;20148;-76
2023/02/14 01:51:38;;;;;;;39.95;20.38;;;;;;;;;;5030273;28;20053;-75
2023/02/14 01:54:05;;;;;;;43.50;21.13;;;;;;;;;;5014299;28;20342;-77
2023/02/14 01:56:41;;;;;;;41.72;20.55;;;;;;;;;;5014073;28;20064;-77
2023/02/14 01:59:10;;;;;;;42.90;20.52;;;;;;;;;;4997448;28;20049;-76
2023/02/14 02:01:36;;;;;;;42.80;21.27;;;;;;;;;;5013996;28;20061;-77
2023/02/14 02:04:08;;;;;;;43.00;21.30;;;;;;;;;;4997614;28;20075;-76
2023/02/14 02:06:37;;;;;;;41.83;19.38;;;;;;;;;;5013602;28;20057;-76
2023/02/14 02:09:12;;;;;;;39.50;19.67;;;;;;;;;;5013379;28;20106;-76
2023/02/14 02:11:39;;;;;;;44.95;21.40;;;;;;;;;;5013687;28;20053;-76
2023/02/14 02:14:11;;;;;;;44.20;22.25;;;;;;;;;;5013423;28;20425;-76
2023/02/14 02:16:56;;;;;;;46.25;21.63;;;;;;;;;;4997640;28;20412;-77
2023/02/14 02:19:39;;;;;;;45.83;21.75;;;;;;;;;;5029702;28;20490;-77
2023/02/14 02:22:44;;;;;;;44.17;20.63;;;;;;;;;;5029685;28;20057;-76
2023/02/14 02:25:47;;;;;;;46.92;22.27;;;;;;;;;;4972215;28;20042;-76
2023/02/14 02:28:28;;;;;;;47.55;21.52;;;;;;;;;;4968187;28;20059;-76
2023/02/14 02:31:29;;;;;;;43.08;21.27;;;;;;;;;;4972548;28;20208;-76
2023/02/14 02:34:23;;;;;;;45.25;21.67;;;;;;;;;;4947866;28;20105;-75
2023/02/14 02:36:55;;;;;;;41.72;21.00;;;;;;;;;;5014376;28;20058;-77
2023/02/14 02:39:28;;;;;;;40.90;21.65;;;;;;;;;;5021759;28;20056;-77
2023/02/14 02:42:13;;;;;;;39.33;17.52;;;;;;;;;;5009604;28;20079;-77
2023/02/14 02:44:50;;;;;;;44.17;21.73;;;;;;;;;;5009210;28;20050;-77
2023/02/14 02:47:53;;;;;;;50.75;23.45;;;;;;;;;;4993925;28;20549;-77
2023/02/14 02:53:43;;;;;;;48.42;23.30;;;;;;;;;;4995975;28;20061;-76
2023/02/14 02:59:03;;;;;;;46.63;22.92;;;;;;;;;;5008984;28;20062;-76
2023/02/14 03:01:33;;;;;;;43.45;22.67;;;;;;;;;;4977073;28;20050;-76
2023/02/14 03:06:50;;;;;;;47.88;22.50;;;;;;;;;;5009291;28;20057;-76
2023/02/14 03:09:19;;;;;;;44.33;21.67;;;;;;;;;;5008851;28;20050;-76
2023/02/14 03:12:27;;;;;;;46.72;21.98;;;;;;;;;;5009298;28;20057;-77
2023/02/14 03:15:15;;;;;;;44.05;22.33;;;;;;;;;;4979125;28;20062;-76
2023/02/14 03:17:49;;;;;;;42.17;21.40;;;;;;;;;;5008560;28;20057;-76
2023/02/14 03:20:53;;;;;;;42.28;21.30;;;;;;;;;;4993326;28;20062;-76
2023/02/14 03:23:21;;;;;;;;;;;;;;;;;;5000142;28;20049;-76
2023/02/14 03:26:16;;;;;;;42.53;22.98;;;;;;;;;;5008593;28;19928;-76
2023/02/14 03:28:47;;;;;;;43.97;21.40;;;;;;;;;;5003052;28;20053;-76
2023/02/14 03:31:58;;;;;;;42.10;21.95;;;;;;;;;;4992614;28;20524;-77
2023/02/14 03:34:31;;;;;;;45.22;22.30;;;;;;;;;;5008942;28;20497;-77
2023/02/14 03:37:05;;;;;;;43.95;21.58;;;;;;;;;;4993165;28;20058;-77
2023/02/14 03:39:47;;;;;;;43.88;21.00;;;;;;;;;;5002816;28;20050;-77
2023/02/14 03:42:27;;;;;;;40.78;21.52;;;;;;;;;;5029589;28;20053;-76
2023/02/14 03:44:54;;;;;;;44.58;22.45;;;;;;;;;;5028202;28;20060;-76
2023/02/14 03:47:23;;;;;;;41.55;22.10;;;;;;;;;;5012152;28;20081;-77
2023/02/14 03:49:54;;;;;;;44.20;21.65;;;;;;;;;;5011814;28;20060;-78
2023/02/14 03:52:20;;;;;;;43.97;20.15;;;;;;;;;;5028532;28;20528;-76
2023/02/14 03:54:47;;;;;;;43.03;21.20;;;;;;;;;;5027780;28;20095;-76
2023/02/14 03:57:42;;;;;;;42.85;21.30;;;;;;;;;;5028503;28;20057;-77
2023/02/14 04:00:09;;;;;;;41.83;21.58;;;;;;;;;;5028108;28;20064;-77
2023/02/14 04:02:52;;;;;;;40.67;19.92;;;;;;;;;;5011882;28;20057;-77
2023/02/14 04:05:22;;;;;;;47.70;22.95;;;;;;;;;;4997175;28;20076;-77
2023/02/14 04:07:54;;;;;;;39.75;20.73;;;;;;;;;;4995874;28;20064;-77
2023/02/14 04:10:21;;;;;;;47.67;21.57;;;;;;;;;;5030097;28;20420;-77
2023/02/14 04:12:48;;;;;;;48.13;21.50;;;;;;;;;;5016226;28;20045;-77
2023/02/14 04:15:15;;;;;;;43.28;22.42;;;;;;;;;;4999622;28;20057;-78
2023/02/14 04:20:27;;;;;;;41.85;21.60;;;;;;;;;;5032020;28;20057;-77
2023/02/14 04:22:54;;;;;;;39.17;19.77;;;;;;;;;;5031754;28;20509;-77
2023/02/14 04:25:21;;;;;;;42.63;20.42;;;;;;;;;;5033958;28;20049;-78
2023/02/14 04:27:48;;;;;;;39.88;19.17;;;;;;;;;;4999161;28;20053;-77
2023/02/14 04:30:16;;;;;;;40.38;19.52;;;;;;;;;;5031661;28;20468;-77
2023/02/14 04:32:43;;;;;;;42.13;21.27;;;;;;;;;;5015374;28;20147;-77
2023/02/14 04:35:10;;;;;;;38.42;20.40;;;;;;;;;;4999541;28;20149;-77
2023/02/14 04:37:37;;;;;;;44.45;20.42;;;;;;;;;;5031849;28;20058;-77
2023/02/14 04:40:04;;;;;;;42.50;20.92;;;;;;;;;;5002484;28;20080;-77
2023/02/14 04:42:31;;;;;;;42.03;20.58;;;;;;;;;;5012128;28;20058;-77
2023/02/14 04:44:58;;;;;;;39.28;19.88;;;;;;;;;;4979614;28;20053;-77
2023/02/14 04:47:24;;;;;;;40.47;19.90;;;;;;;;;;4979153;28;20061;-76
2023/02/14 04:49:51;;;;;;;42.95;22.38;;;;;;;;;;4996342;28;20528;-77
2023/02/14 04:52:18;;;;;;;38.80;19.92;;;;;;;;;;4996027;28;20056;-77
2023/02/14 04:54:45;;;;;;;44.45;21.35;;;;;;;;;;5011606;28;20156;-76
2023/02/14 04:57:11;;;;;;;42.97;20.88;;;;;;;;;;5012848;28;20060;-76
2023/02/14 04:59:38;;;;;;;39.03;20.00;;;;;;;;;;5011203;28;20069;-76
2023/02/14 05:02:05;;;;;;;40.97;21.73;;;;;;;;;;5015163;28;20141;-76
2023/02/14 05:04:31;;;;;;;43.13;21.83;;;;;;;;;;5017836;28;20397;-75
2023/02/14 05:06:58;;;;;;;45.58;23.23;;;;;;;;;;5015481;28;20049;-76
2023/02/14 05:09:25;;;;;;;43.63;24.25;;;;;;;;;;5048388;28;20489;-75
2023/02/14 05:11:52;;;;;;;38.85;21.92;;;;;;;;;;5049039;28;20050;-76
2023/02/14 05:14:18;;;;;;;44.67;21.90;;;;;;;;;;5031320;28;20057;-76
2023/02/14 05:16:45;;;;;;;42.45;20.92;;;;;;;;;;5048677;28;20492;-76
2023/02/14 05:19:12;;;;;;;41.72;20.65;;;;;;;;;;5014408;28;20452;-76
2023/02/14 05:21:39;;;;;;;44.75;21.10;;;;;;;;;;5046401;28;20128;-76
2023/02/14 05:24:06;;;;;;;41.22;21.30;;;;;;;;;;5047307;28;20412;-76
2023/02/14 05:26:32;;;;;;;42.30;20.08;;;;;;;;;;5032436;28;20052;-76
2023/02/14 05:28:59;;;;;;;46.53;22.23;;;;;;;;;;5046783;28;20420;-75
2023/02/14 05:31:26;;;;;;;39.63;20.33;;;;;;;;;;5047509;28;20053;-75
2023/02/14 05:33:53;;;;;;;37.72;20.85;;;;;;;;;;5030580;28;20045;-74
2023/02/14 05:36:19;;;;;;;40.97;21.40;;;;;;;;;;5047211;28;20080;-76
2023/02/14 05:38:46;;;;;;;39.85;19.73;;;;;;;;;;5047213;28;20062;-76
2023/02/14 05:41:13;;;;;;;40.80;19.33;;;;;;;;;;5030937;28;20068;-76
2023/02/14 05:43:40;;;;;;;38.78;20.52;;;;;;;;;;5027899;28;20405;-76
2023/02/14 05:46:06;;;;;;;37.97;20.30;;;;;;;;;;5028445;28;20064;-78
2023/02/14 05:48:37;;;;;;;36.53;19.98;;;;;;;;;;5030538;28;20057;-75
2023/02/14 05:51:04;;;;;;;40.55;21.20;;;;;;;;;;5030928;28;20057;-76
2023/02/14 05:53:31;;;;;;;35.53;19.45;;;;;;;;;;5017737;28;20058;-74
2023/02/14 05:55:58;;;;;;;40.10;20.83;;;;;;;;;;5010458;28;20054;-75
2023/02/14 05:58:24;;;;;;;39.40;21.05;;;;;;;;;;4993913;28;20437;-74
2023/02/14 06:00:51;;;;;;;39.15;20.15;;;;;;;;;;5010020;28;20065;-74
2023/02/14 06:03:18;;;;;;;40.17;20.33;;;;;;;;;;5010811;28;20513;-74
2023/02/14 06:05:45;;;;;;;40.03;20.38;;;;;;;;;;5024661;28;20549;-74
2023/02/14 06:08:11;;;;;;;39.20;20.27;;;;;;;;;;5029904;28;20406;-74
2023/02/14 06:10:38;;;;;;;39.22;19.88;;;;;;;;;;5030096;28;20068;-73
2023/02/14 06:13:09;;;;;;;42.65;20.02;;;;;;;;;;5030371;28;20134;-73
2023/02/14 06:15:36;;;;;;;39.85;19.88;;;;;;;;;;5000650;28;20054;-74
2023/02/14 06:18:03;;;;;;;39.85;21.13;;;;;;;;;;4994567;28;20457;-74
2023/02/14 06:20:30;;;;;;;40.97;21.95;;;;;;;;;;4994094;28;20096;-74
2023/02/14 06:22:57;;;;;;;46.15;22.25;;;;;;;;;;4993588;28;20064;-74
2023/02/14 06:25:24;;;;;;;47.25;23.20;;;;;;;;;;5020462;28;20136;-74
2023/02/14 06:27:55;;;;;;;43.53;22.48;;;;;;;;;;5027531;28;20509;-73
2023/02/14 06:30:23;;;;;;;39.03;20.83;;;;;;;;;;5019235;28;20060;-74
2023/02/14 06:32:50;;;;;;;40.40;20.50;;;;;;;;;;5028794;28;20054;-75
2023/02/14 06:35:17;;;;;;;39.65;21.27;;;;;;;;;;5030707;28;20064;-75
2023/02/14 06:37:44;;;;;;;41.70;21.02;;;;;;;;;;5029004;28;20480;-75
2023/02/14 06:40:11;;;;;;;42.78;22.23;;;;;;;;;;5012747;28;20053;-75
2023/02/14 06:42:38;;;;;;;40.88;21.75;;;;;;;;;;5012981;28;20088;-75
2023/02/14 06:45:06;;;;;;;45.25;22.08;;;;;;;;;;5029369;28;20049;-79
2023/02/14 06:47:32;;;;;;;42.25;20.90;;;;;;;;;;5012825;28;20520;-75
2023/02/14 06:50:03;;;;;;;39.67;21.15;;;;;;;;;;5029224;28;20049;-77
2023/02/14 06:52:32;;;;;;;40.42;21.33;;;;;;;;;;4997294;28;20053;-72
2023/02/14 06:54:59;;;;;;;38.22;21.40;;;;;;;;;;5028929;28;20057;-73
2023/02/14 06:57:26;;;;;;;39.85;20.45;;;;;;;;;;5028951;28;20058;-75
2023/02/14 06:59:52;;;;;;;38.25;20.05;;;;;;;;;;5028823;28;20053;-72
2023/02/14 07:02:19;;;;;;;40.30;20.05;;;;;;;;;;5028337;28;20377;-72
2023/02/14 07:04:50;;;;;;;44.20;20.88;;;;;;;;;;5027481;28;20072;-71
2023/02/14 07:07:16;;;;;;;40.17;20.98;;;;;;;;;;5027228;28;20057;-71
2023/02/14 07:09:43;;;;;;;40.30;21.00;;;;;;;;;;5027090;28;20053;-72
2023/02/14 07:12:10;;;;;;;38.63;20.17;;;;;;;;;;5011086;28;20049;-71
2023/02/14 07:14:37;;;;;;;36.13;19.60;;;;;;;;;;5027271;28;20057;-71
2023/02/14 07:17:03;;;;;;;41.95;21.08;;;;;;;;;;5027306;28;20485;-71
2023/02/14 07:19:30;;;;;;;40.45;20.45;;;;;;;;;;5026762;28;20103;-71
2023/02/14 07:21:57;;;;;;;41.08;20.23;;;;;;;;;;5027099;28;20424;-71
2023/02/14 07:24:24;;;;;;;36.53;19.20;;;;;;;;;;5010773;28;20057;-71
2023/02/14 07:26:50;;;;;;;43.30;20.83;;;;;;;;;;5027088;28;20037;-71
2023/02/14 07:29:17;;;;;;;44.30;21.80;;;;;;;;;;5026963;28;20409;-71
2023/02/14 07:31:44;;;;;;;43.50;21.88;;;;;;;;;;5026758;28;20075;-71
2023/02/14 07:34:11;;;;;;;42.17;21.15;;;;;;;;;;5026965;28;20068;-71
2023/02/14 07:36:38;;;;;;;47.10;22.10;;;;;;;;;;5027050;28;20045;-71
2023/02/14 07:39:04;;;;;;;41.58;22.02;;;;;;;;;;5027150;28;20064;-71
2023/02/14 07:41:31;;;;;;;46.83;22.83;;;;;;;;;;5026938;28;20057;-70
2023/02/14 07:43:58;;;;;;;44.80;22.55;;;;;;;;;;5026567;28;20085;-71
2023/02/14 07:46:25;;;;;;;44.17;23.05;;;;;;;;;;5026578;28;20065;-74
2023/02/14 07:48:51;;;;;;;45.33;22.52;;;;;;;;;;5027034;28;20086;-72
2023/02/14 07:51:18;;;;;;;44.55;22.90;;;;;;;;;;5026759;28;20061;-70
2023/02/14 07:53:45;;;;;;;41.60;20.83;;;;;;;;;;5027034;28;20380;-82
2023/02/14 07:56:12;;;;;;;43.60;22.60;;;;;;;;;;4998267;28;20128;-74
2023/02/14 07:58:39;;;;;;;43.97;22.10;;;;;;;;;;5027974;28;20425;-73
2023/02/14 08:01:06;;;;;;;40.40;21.73;;;;;;;;;;5018625;28;20324;-81
2023/02/14 08:03:33;;;;;;;40.38;22.70;;;;;;;;;;5020533;28;20085;-71
2023/02/14 08:06:00;;;;;;;45.42;22.30;;;;;;;;;;5013146;28;20062;-71
2023/02/14 08:08:28;;;;;;;42.33;21.60;;;;;;;;;;5013480;28;20577;-75
2023/02/14 08:10:55;;;;;;;39.45;22.20;;;;;;;;;;5012358;28;20132;-72
2023/02/14 08:13:22;;;;;;;39.50;20.67;;;;;;;;;;5015426;28;20112;-72
2023/02/14 08:16:04;;;;;;;41.28;22.63;;;;;;;;;;5010070;28;20529;-74
2023/02/14 08:18:36;;;;;;;39.50;21.23;;;;;;;;;;5019023;28;20049;-74
2023/02/14 08:21:04;;;;;;;39.75;21.92;;;;;;;;;;5016762;28;20132;-74
2023/02/14 08:23:31;;;;;;;40.90;21.67;;;;;;;;;;5013010;28;20494;-74
2023/02/14 08:25:58;;;;;;;36.33;21.27;;;;;;;;;;5015584;28;20045;-74
2023/02/14 08:28:25;;;;;;;41.45;20.92;;;;;;;;;;5015633;28;20061;-75
2023/02/14 08:30:52;;;;;;;39.45;21.73;;;;;;;;;;5021173;28;20136;-72
2023/02/14 08:33:19;;;;;;;40.85;21.05;;;;;;;;;;5014640;28;20411;-73
2023/02/14 08:35:46;;;;;;;35.70;20.50;;;;;;;;;;5007853;28;20061;-72
2023/02/14 08:38:12;;;;;;;40.38;21.63;;;;;;;;;;5015181;28;20083;-73
2023/02/14 08:40:40;;;;;;;40.75;20.55;;;;;;;;;;5018113;28;20050;-72
2023/02/14 08:43:07;;;;;;;34.58;20.85;;;;;;;;;;5014093;28;20151;-72
2023/02/14 08:45:34;;;;;;;35.22;20.77;;;;;;;;;;5016115;28;20057;-72
2023/02/14 08:48:03;;;;;;;31.50;18.98;;;;;;;;;;5013562;28;20520;-73
2023/02/14 08:50:30;;;;;;;32.80;20.10;;;;;;;;;;5011406;28;20069;-73
2023/02/14 08:52:57;;;;;;;37.05;20.48;;;;;;;;;;5014459;28;20057;-72
2023/02/14 08:55:26;;;;;;;33.97;19.38;;;;;;;;;;5012861;28;20060;-72
2023/02/14 08:57:56;;;;;;;34.67;19.92;;;;;;;;;;5034866;28;20148;-72
2023/02/14 09:00:24;;;;;;;34.83;20.00;;;;;;;;;;5023203;28;20140;-72
2023/02/14 09:02:51;;;;;;;31.80;19.58;;;;;;;;;;5017696;28;20077;-72
2023/02/14 09:05:20;;;;;;;34.13;19.77;;;;;;;;;;5010401;28;20057;-72
2023/02/14 09:07:47;;;;;;;30.60;18.15;;;;;;;;;;5021030;28;20484;-72
2023/02/14 09:10:17;;;;;;;34.65;19.73;;;;;;;;;;5010925;28;20608;-73
2023/02/14 09:12:46;;;;;;;32.65;18.35;;;;;;;;;;5022140;28;20104;-72
2023/02/14 09:15:13;;;;;;;32.97;19.38;;;;;;;;;;5019558;28;20049;-73
2023/02/14 09:17:39;;;;;;;30.20;18.83;;;;;;;;;;5022729;28;20501;-72
2023/02/14 09:20:11;;;;;;;29.20;17.40;;;;;;;;;;5017588;28;20112;-72
2023/02/14 09:22:38;;;;;;;30.92;18.73;;;;;;;;;;5041324;28;20511;-73
2023/02/14 09:25:05;;;;;;;32.85;19.23;;;;;;;;;;5029507;28;20061;-72
2023/02/14 09:27:31;;;;;;;31.55;19.23;;;;;;;;;;5029302;28;20505;-72
2023/02/14 09:29:58;;;;;;;27.27;17.65;;;;;;;;;;5030026;28;20490;-73
2023/02/14 09:32:25;;;;;;;30.25;18.38;;;;;;;;;;5029861;28;20523;-71
2023/02/14 09:34:52;;;;;;;31.38;18.77;;;;;;;;;;5030376;28;20096;-71
2023/02/14 09:40:05;;;;;;;31.90;18.75;;;;;;;;;;5032037;28;20057;-72
2023/02/14 09:42:49;;;;;;;27.48;17.98;;;;;;;;;;5030723;28;20057;-71
2023/02/14 09:45:20;;;;;;;27.88;17.45;;;;;;;;;;5031727;28;20053;-72
2023/02/14 09:48:00;;;;;;;27.73;18.20;;;;;;;;;;5030604;28;20057;-72
2023/02/14 09:50:29;;;;;;;29.58;17.65;;;;;;;;;;5029863;28;20045;-71
2023/02/14 09:53:00;;;;;;;29.83;17.35;;;;;;;;;;5030027;28;20053;-72
2023/02/14 09:55:35;;;;;;;27.08;16.77;;;;;;;;;;5030399;28;20057;-72
2023/02/14 09:58:18;;;;;;;25.88;16.50;;;;;;;;;;5030095;28;20057;-72
2023/02/14 10:00:52;;;;;;;26.50;16.30;;;;;;;;;;5029831;28;20060;-72
2023/02/14 10:04:04;;;;;;;26.30;16.70;;;;;;;;;;5013609;28;20061;-72
2023/02/14 10:06:42;;;;;;;25.95;17.25;;;;;;;;;;5007952;28;20049;-72
2023/02/14 10:09:21;;;;;;;24.60;15.35;;;;;;;;;;5029074;28;20068;-72
2023/02/14 10:11:48;;;;;;;27.98;17.35;;;;;;;;;;5030150;28;20521;-72
2023/02/14 10:14:25;;;;;;;25.60;16.25;;;;;;;;;;5030210;28;20061;-72
2023/02/14 10:17:16;;;;;;;26.23;16.83;;;;;;;;;;5013884;28;20053;-72
2023/02/14 10:19:47;;;;;;;26.17;16.42;;;;;;;;;;5013786;28;20136;-72
2023/02/14 10:22:15;;;;;;;26.58;17.40;;;;;;;;;;5013610;28;20088;-72
2023/02/14 10:24:57;;;;;;;24.40;15.88;;;;;;;;;;5029982;28;20084;-72
2023/02/14 10:27:41;;;;;;;25.70;17.08;;;;;;;;;;5029672;28;20079;-72
2023/02/14 10:30:18;;;;;;;27.55;16.52;;;;;;;;;;5029953;28;20049;-72
2023/02/14 10:32:47;;;;;;;23.67;14.88;;;;;;;;;;5009688;28;20485;-73
2023/02/14 10:35:41;;;;;;;23.08;15.52;;;;;;;;;;5026056;28;20513;-72
2023/02/14 10:38:17;;;;;;;23.35;14.73;;;;;;;;;;5009446;28;20057;-72
2023/02/14 10:41:18;;;;;;;23.30;14.88;;;;;;;;;;5013899;28;20072;-72
2023/02/14 10:44:00;;;;;;;26.85;15.07;;;;;;;;;;5029476;28;20057;-72
2023/02/14 10:46:45;;;;;;;22.85;14.88;;;;;;;;;;5029351;28;20072;-72
2023/02/14 10:49:47;;;;;;;25.17;15.48;;;;;;;;;;5028967;28;20057;-72
2023/02/14 10:52:16;;;;;;;25.13;15.93;;;;;;;;;;5028626;28;20576;-72
2023/02/14 10:54:49;;;;;;;21.30;14.52;;;;;;;;;;5029076;28;20045;-72
2023/02/14 10:57:30;;;;;;;25.80;15.30;;;;;;;;;;5013073;28;20049;-73
2023/02/14 11:00:09;;;;;;;21.23;14.20;;;;;;;;;;5028917;28;20502;-72
2023/02/14 11:02:41;;;;;;;23.60;14.50;;;;;;;;;;5028113;28;20064;-73
2023/02/14 11:05:30;;;;;;;20.33;13.88;;;;;;;;;;5026374;28;20068;-74
2023/02/14 11:07:57;;;;;;;24.30;15.10;;;;;;;;;;5010856;28;20088;-73
2023/02/14 11:10:29;;;;;;;22.13;14.52;;;;;;;;;;5015156;28;20062;-73
2023/02/14 11:12:55;;;;;;;19.75;13.75;;;;;;;;;;5017646;28;20060;-73
2023/02/14 11:15:24;;;;;;;22.40;14.52;;;;;;;;;;5014389;28;20062;-78
2023/02/14 11:18:18;;;;;;;24.35;15.23;;;;;;;;;;5012951;28;20054;-74
2023/02/14 11:21:00;;;;;;;21.13;14.80;;;;;;;;;;5009257;28;20056;-77
2023/02/14 11:23:27;;;;;;;21.30;14.90;;;;;;;;;;5001160;28;20060;-75
2023/02/14 11:25:54;;;;;;;23.70;15.57;;;;;;;;;;4998551;28;20493;-74
2023/02/14 11:28:21;;;;;;;20.58;14.93;;;;;;;;;;5015385;28;20045;-73
2023/02/14 11:30:48;;;;;;;26.27;14.80;;;;;;;;;;5014401;28;20060;-73
2023/02/14 11:33:37;;;;;;;21.20;14.23;;;;;;;;;;5013541;28;20129;-74
2023/02/14 11:36:15;;;;;;;22.92;14.30;;;;;;;;;;4997541;28;20064;-74
2023/02/14 11:38:42;;;;;;;23.25;15.55;;;;;;;;;;5014168;28;20520;-73
2023/02/14 11:41:13;;;;;;;20.88;14.13;;;;;;;;;;5016069;28;20501;-74
2023/02/14 11:43:41;;;;;;;23.08;14.65;;;;;;;;;;5000076;28;20425;-74
2023/02/14 11:46:16;;;;;;;25.08;14.75;;;;;;;;;;5012432;28;20057;-75
2023/02/14 11:48:58;;;;;;;21.85;13.93;;;;;;;;;;5021268;28;20060;-75
2023/02/14 11:51:46;;;;;;;24.20;14.20;;;;;;;;;;5014563;28;20119;-75
2023/02/14 11:54:23;;;;;;;25.15;14.65;;;;;;;;;;5016098;28;20056;-74
2023/02/14 11:56:52;;;;;;;21.35;15.05;;;;;;;;;;5013937;28;20092;-75
2023/02/14 11:59:40;;;;;;;26.73;16.67;;;;;;;;;;5013055;28;20060;-75
2023/02/14 12:02:31;;;;;;;25.30;15.82;;;;;;;;;;5016191;28;20137;-74
2023/02/14 12:05:19;;;;;;;23.77;15.82;;;;;;;;;;5014434;28;20054;-74
2023/02/14 12:07:47;;;;;;;24.83;15.50;;;;;;;;;;5016004;28;20133;-74
2023/02/14 12:10:14;;;;;;;22.23;15.27;;;;;;;;;;5016727;28;20473;-75
2023/02/14 12:13:07;;;;;;;25.02;15.90;;;;;;;;;;5014775;28;20535;-74
2023/02/14 12:15:39;;;;;;;22.08;15.43;;;;;;;;;;4982411;28;20516;-74
2023/02/14 12:18:25;;;;;;;22.25;14.40;;;;;;;;;;5017398;28;20108;-75
2023/02/14 12:21:11;;;;;;;22.83;15.57;;;;;;;;;;5013909;28;20524;-73
2023/02/14 12:23:48;;;;;;;25.35;15.35;;;;;;;;;;5016741;28;20057;-74
2023/02/14 12:26:39;;;;;;;21.75;15.13;;;;;;;;;;5017528;28;20056;-74
2023/02/14 12:29:25;;;;;;;21.58;15.02;;;;;;;;;;5002625;28;20049;-74
2023/02/14 12:31:53;;;;;;;23.63;14.93;;;;;;;;;;5020614;28;20096;-73
2023/02/14 12:34:21;;;;;;;22.75;15.07;;;;;;;;;;5021189;28;20476;-74
2023/02/14 12:37:27;;;;;;;26.38;15.80;;;;;;;;;;5022084;28;20049;-74
2023/02/14 12:40:20;;;;;;;20.38;14.02;;;;;;;;;;5007030;28;20057;-74
2023/02/14 12:42:50;;;;;;;19.52;14.00;;;;;;;;;;5028964;28;20516;-74
2023/02/14 12:45:42;;;;;;;19.83;14.30;;;;;;;;;;5018031;28;20440;-73
2023/02/14 12:48:55;;;;;;;20.55;13.82;;;;;;;;;;5019058;28;20081;-73
2023/02/14 12:51:36;;;;;;;19.83;14.38;;;;;;;;;;4970586;28;20501;-74
2023/02/14 12:54:14;;;;;;;20.25;14.38;;;;;;;;;;5019010;28;20064;-74
2023/02/14 12:56:50;;;;;;;17.38;13.45;;;;;;;;;;5017687;28;20089;-73
2023/02/14 12:59:17;;;;;;;19.10;13.98;;;;;;;;;;5013250;28;20207;-74
2023/02/14 13:02:17;;;;;;;21.52;14.82;;;;;;;;;;5018124;28;20758;-73
2023/02/14 13:04:51;;;;;;;18.65;14.13;;;;;;;;;;5019712;28;20062;-73
2023/02/14 13:07:40;;;;;;;19.73;13.48;;;;;;;;;;5021173;28;20057;-74
2023/02/14 13:10:26;;;;;;;18.08;14.23;;;;;;;;;;5024545;28;20045;-74
2023/02/14 13:12:59;;;;;;;16.73;13.02;;;;;;;;;;5022457;28;20148;-73
2023/02/14 13:15:57;;;;;;;22.30;14.20;;;;;;;;;;5015830;28;20049;-72
2023/02/14 13:18:34;;;;;;;18.83;13.93;;;;;;;;;;5021418;28;20402;-74
2023/02/14 13:21:12;;;;;;;18.20;13.68;;;;;;;;;;5019507;28;20046;-73
2023/02/14 13:23:41;;;;;;;19.90;13.63;;;;;;;;;;5019518;28;20460;-73
2023/02/14 13:26:16;;;;;;;16.58;12.90;;;;;;;;;;5022702;28;20097;-73
2023/02/14 13:29:22;;;;;;;18.73;13.77;;;;;;;;;;5000958;28;20050;-74
2023/02/14 13:31:52;;;;;;;17.52;13.68;;;;;;;;;;5019898;28;20132;-73
2023/02/14 13:34:37;;;;;;;17.52;12.70;;;;;;;;;;5019406;28;20056;-73
2023/02/14 13:37:07;;;;;;;18.52;13.38;;;;;;;;;;5034828;28;20069;-75
2023/02/14 13:39:56;;;;;;;18.33;13.32;;;;;;;;;;5017563;28;20147;-74
2023/02/14 13:42:46;;;;;;;16.77;13.05;;;;;;;;;;5015214;28;20111;-73
2023/02/14 13:45:36;;;;;;;18.27;13.55;;;;;;;;;;5021945;28;20104;-74
2023/02/14 13:48:13;;;;;;;18.88;13.98;;;;;;;;;;5015131;28;20137;-76
2023/02/14 13:50:55;;;;;;;17.23;13.63;;;;;;;;;;5017498;28;20092;-75
2023/02/14 13:53:45;;;;;;;20.83;14.55;;;;;;;;;;5019045;28;20668;-74
2023/02/14 13:56:14;;;;;;;17.17;13.20;;;;;;;;;;5022449;28;20071;-74
2023/02/14 13:58:52;;;;;;;21.90;14.77;;;;;;;;;;5014845;28;20081;-74
2023/02/14 14:01:39;;;;;;;19.77;13.73;;;;;;;;;;5017664;28;20057;-76
2023/02/14 14:04:25;;;;;;;21.58;14.50;;;;;;;;;;5018302;28;20049;-74
2023/02/14 14:07:04;;;;;;;19.23;14.63;;;;;;;;;;5018093;28;20053;-74
2023/02/14 14:09:41;;;;;;;21.38;15.52;;;;;;;;;;5018507;28;20076;-75
2023/02/14 14:12:26;;;;;;;21.02;15.05;;;;;;;;;;5016407;28;20061;-75
2023/02/14 14:15:09;;;;;;;20.90;14.80;;;;;;;;;;5017824;28;20088;-73
2023/02/14 14:17:40;;;;;;;20.38;14.63;;;;;;;;;;5015587;28;20046;-75
2023/02/14 14:20:18;;;;;;;20.05;14.50;;;;;;;;;;5019548;28;20137;-75
2023/02/14 14:22:50;;;;;;;19.08;14.88;;;;;;;;;;5014184;28;20061;-73
2023/02/14 14:25:38;;;;;;;20.08;15.18;;;;;;;;;;5013995;28;20058;-74
2023/02/14 14:28:20;;;;;;;21.88;15.13;;;;;;;;;;4999309;28;20042;-75
2023/02/14 14:30:47;;;;;;;22.23;15.73;;;;;;;;;;4987568;28;20136;-75
2023/02/14 14:33:31;;;;;;;20.85;15.70;;;;;;;;;;5004764;28;20591;-74
2023/02/14 14:36:00;;;;;;;22.70;15.45;;;;;;;;;;5018571;28;20060;-75
2023/02/14 14:38:28;;;;;;;24.17;15.30;;;;;;;;;;5001078;28;20528;-74
2023/02/14 14:40:56;;;;;;;22.50;15.57;;;;;;;;;;4993856;28;20716;-75
2023/02/14 14:43:26;;;;;;;23.63;15.52;;;;;;;;;;4999594;28;20678;-75
2023/02/14 14:45:54;;;;;;;23.58;17.00;;;;;;;;;;5013245;28;20097;-75
2023/02/14 14:48:45;;;;;;;22.65;15.82;;;;;;;;;;5001425;28;20042;-75
2023/02/14 14:51:29;;;;;;;22.80;15.52;;;;;;;;;;5001759;28;20593;-75
2023/02/14 14:53:57;;;;;;;21.08;15.52;;;;;;;;;;5015066;28;20049;-74
2023/02/14 14:56:29;;;;;;;22.50;16.23;;;;;;;;;;5014247;28;20062;-75
2023/02/14 14:58:57;;;;;;;22.60;16.27;;;;;;;;;;5012638;28;20522;-75
2023/02/14 15:01:37;;;;;;;22.73;15.65;;;;;;;;;;4996965;28;20057;-75
2023/02/14 15:04:13;;;;;;;22.15;16.17;;;;;;;;;;5019890;28;20068;-75
2023/02/14 15:06:41;;;;;;;22.08;15.82;;;;;;;;;;5018677;28;20082;-75